Time;durP1;ratioP1;P1;durP2;ratioP2;P2;SDS_P1;SDS_P2;PMS_P1;PMS_P2;Temp;Humidity;BMP_temperature;BMP_pressure;BME280_temperature;BME280_humidity;BME280_pressure;Samples;Min_cycle;Max_cycle;Signal;HPM_P1;HPM_P2
2021/11/10 00:00:12;;;;;;;;;;;;;;;;;;5036541;28;19951;-81
2021/11/10 00:02:37;;;;;;;;;;;;;;;;;;5020048;28;19912;-80
2021/11/10 00:05:03;;;;;;;;;;;;;;;;;;5053019;28;19914;-80
2021/11/10 00:07:28;;;;;;;;;;;;;;;;;;5032552;28;19940;-80
2021/11/10 00:09:53;;;;;;;;;;;;;;;;;;5016110;28;19943;-80
2021/11/10 00:12:19;;;;;;;;;;;;;;;;;;5047895;28;19921;-80
2021/11/10 00:14:44;;;;;;;;;;;;;;;;;;5035870;28;19917;-80
2021/11/10 00:17:09;;;;;;;;;;;;;;;;;;5053357;28;20020;-80
2021/11/10 00:19:35;;;;;;;;;;;;;;;;;;5036286;28;19960;-80
2021/11/10 00:22:00;;;;;;;;;;;;;;;;;;5052656;28;19955;-80
2021/11/10 00:24:25;;;;;;;;;;;;;;;;;;5036008;28;19917;-80
2021/11/10 00:26:51;;;;;;;;;;;;;;;;;;5036042;28;19971;-80
2021/11/10 00:29:16;;;;;;;;;;;;;;;;;;5051589;28;19974;-80
2021/11/10 00:31:42;;;;;;;;;;;;;;;;;;5032477;28;19917;-80
2021/11/10 00:34:07;;;;;;;;;;;;;;;;;;5040540;28;19923;-80
2021/11/10 00:36:32;;;;;;;;;;;;;;;;;;5035571;28;19912;-80
2021/11/10 00:38:59;;;;;;;;;;;;;;;;;;5031407;28;19924;-80
2021/11/10 00:41:24;;;;;;;;;;;;;;;;;;5028050;28;19959;-80
2021/11/10 00:43:49;;;;;;;;;;;;;;;;;;5051842;28;19925;-80
2021/11/10 00:46:15;;;;;;;;;;;;;;;;;;5036044;28;20007;-80
2021/11/10 00:48:40;;;;;;;;;;;;;;;;;;5035414;28;20286;-80
2021/11/10 00:51:05;;;;;;;;;;;;;;;;;;5018814;28;19920;-80
2021/11/10 00:53:31;;;;;;;;;;;;;;;;;;5051440;28;19923;-80
2021/11/10 00:55:56;;;;;;;;;;;;;;;;;;5051811;28;19925;-80
2021/11/10 00:58:22;;;;;;;;;;;;;;;;;;5003478;28;20010;-80
2021/11/10 01:00:48;;;;;;;;;;;;;;;;;;5020537;28;19917;-80
2021/11/10 01:03:13;;;;;;;;;;;;;;;;;;5033298;28;20379;-80
2021/11/10 01:05:39;;;;;;;;;;;;;;;;;;5051906;28;20009;-79
2021/11/10 01:08:05;;;;;;;;;;;;;;;;;;5051812;28;19913;-80
2021/11/10 01:10:31;;;;;;;;;;;;;;;;;;5051485;28;20459;-80
2021/11/10 01:12:56;;;;;;;;;;;;;;;;;;5050912;28;20392;-80
2021/11/10 01:15:21;;;;;;;;;;;;;;;;;;5035195;28;20314;-80
2021/11/10 01:17:47;;;;;;;;;;;;;;;;;;5034689;28;19917;-80
2021/11/10 01:20:12;;;;;;;;;;;;;;;;;;5051601;28;20251;-80
2021/11/10 01:22:38;;;;;;;;;;;;;;;;;;5051114;28;19913;-80
2021/11/10 01:25:04;;;;;;;;;;;;;;;;;;5031618;28;19917;-80
2021/11/10 01:27:29;;;;;;;;;;;;;;;;;;5031145;28;19913;-80
2021/11/10 01:29:54;;;;;;;;;;;;;;;;;;5030558;28;19976;-80
2021/11/10 01:32:20;;;;;;;;;;;;;;;;;;5017987;28;19952;-80
2021/11/10 01:34:45;;;;;;;;;;;;;;;;;;5018121;28;19962;-80
2021/11/10 01:37:11;;;;;;;;;;;;;;;;;;5051411;28;19916;-80
2021/11/10 01:39:36;;;;;;;;;;;;;;;;;;5051155;28;19928;-80
2021/11/10 01:42:03;;;;;;;;;;;;;;;;;;5029438;28;19924;-80
2021/11/10 01:44:28;;;;;;;;;;;;;;;;;;5039886;28;19921;-79
2021/11/10 01:46:57;;;;;;;;;;;;;;;;;;5050908;28;20039;-80
2021/11/10 01:49:22;;;;;;;;;;;;;;;;;;5031206;28;19956;-80
2021/11/10 01:51:51;;;;;;;;;;;;;;;;;;5031089;28;20010;-80
2021/11/10 01:54:17;;;;;;;;;;;;;;;;;;5047413;28;20330;-79
2021/11/10 01:56:43;;;;;;;;;;;;;;;;;;5017286;28;19928;-80
2021/11/10 01:59:08;;;;;;;;;;;;;;;;;;5030341;28;19924;-80
2021/11/10 02:01:46;;;;;;;;;;;;;;;;;;5034073;28;19923;-80
2021/11/10 02:04:11;;;;;;;;;;;;;;;;;;5033096;28;20035;-80
2021/11/10 02:06:37;;;;;;;;;;;;;;;;;;5051044;28;20382;-79
2021/11/10 02:09:03;;;;;;;;;;;;;;;;;;5033642;28;20410;-80
2021/11/10 02:11:28;;;;;;;;;;;;;;;;;;5050315;28;20375;-80
2021/11/10 02:13:55;;;;;;;;;;;;;;;;;;5050431;28;19947;-80
2021/11/10 02:16:20;;;;;;;;;;;;;;;;;;5034571;28;19916;-80
2021/11/10 02:18:45;;;;;;;;;;;;;;;;;;5050383;28;19956;-79
2021/11/10 02:21:13;;;;;;;;;;;;;;;;;;5034381;28;20271;-80
2021/11/10 02:23:38;;;;;;;;;;;;;;;;;;5023381;28;19968;-80
2021/11/10 02:26:06;;;;;;;;;;;;;;;;;;5015581;28;19956;-80
2021/11/10 02:28:33;;;;;;;;;;;;;;;;;;5000213;28;19921;-79
2021/11/10 02:30:58;;;;;;;;;;;;;;;;;;5050600;28;20413;-80
2021/11/10 02:33:29;;;;;;;;;;;;;;;;;;5033756;28;19917;-80
2021/11/10 02:36:00;;;;;;;;;;;;;;;;;;5050302;28;19999;-80
2021/11/10 02:38:26;;;;;;;;;;;;;;;;;;5050364;28;20301;-80
2021/11/10 02:40:55;;;;;;;;;;;;;;;;;;5033661;28;19917;-79
2021/11/10 02:43:21;;;;;;;;;;;;;;;;;;5017171;28;19928;-80
2021/11/10 02:45:47;;;;;;;;;;;;;;;;;;5049782;28;19921;-80
2021/11/10 02:48:13;;;;;;;;;;;;;;;;;;5049316;28;19913;-80
2021/11/10 02:50:39;;;;;;;;;;;;;;;;;;5028510;28;19917;-80
2021/11/10 02:53:04;;;;;;;;;;;;;;;;;;5030617;28;19913;-80
2021/11/10 02:55:30;;;;;;;;;;;;;;;;;;5030217;28;19917;-80
2021/11/10 02:57:55;;;;;;;;;;;;;;;;;;5041718;28;19940;-80
2021/11/10 03:00:21;;;;;;;;;;;;;;;;;;5016787;28;19928;-80
2021/11/10 03:02:46;;;;;;;;;;;;;;;;;;5050018;28;19920;-80
2021/11/10 03:05:11;;;;;;;;;;;;;;;;;;5050067;28;19975;-79
2021/11/10 03:07:37;;;;;;;;;;;;;;;;;;5050346;28;19913;-80
2021/11/10 03:10:02;;;;;;;;;;;;;;;;;;5050048;28;19921;-80
2021/11/10 03:12:28;;;;;;;;;;;;;;;;;;5049610;28;19916;-80
2021/11/10 03:14:53;;;;;;;;;;;;;;;;;;5017240;28;19962;-80
2021/11/10 03:17:18;;;;;;;;;;;;;;;;;;5017076;28;19956;-80
2021/11/10 03:19:44;;;;;;;;;;;;;;;;;;5049768;28;19917;-80
2021/11/10 03:22:10;;;;;;;;;;;;;;;;;;5053780;28;19921;-80
2021/11/10 03:24:35;;;;;;;;;;;;;;;;;;5053353;28;19996;-79
2021/11/10 03:27:00;;;;;;;;;;;;;;;;;;5053167;28;19955;-80
2021/11/10 03:29:26;;;;;;;;;;;;;;;;;;5036420;28;19972;-79
2021/11/10 03:31:51;;;;;;;;;;;;;;;;;;5054025;28;19917;-80
2021/11/10 03:34:17;;;;;;;;;;;;;;;;;;5053419;28;20041;-80
2021/11/10 03:36:42;;;;;;;;;;;;;;;;;;5053564;28;19923;-80
2021/11/10 03:39:09;;;;;;;;;;;;;;;;;;5053269;28;19913;-80
2021/11/10 03:41:34;;;;;;;;;;;;;;;;;;5052903;28;19917;-79
2021/11/10 03:43:59;;;;;;;;;;;;;;;;;;5044174;28;19939;-80
2021/11/10 03:46:25;;;;;;;;;;;;;;;;;;5041613;28;20390;-79
2021/11/10 03:48:50;;;;;;;;;;;;;;;;;;5017335;28;19913;-80
2021/11/10 03:51:16;;;;;;;;;;;;;;;;;;5036284;28;19920;-80
2021/11/10 03:53:41;;;;;;;;;;;;;;;;;;5036463;28;19928;-79
2021/11/10 03:56:07;;;;;;;;;;;;;;;;;;5053006;28;19920;-79
2021/11/10 03:58:33;;;;;;;;;;;;;;;;;;5052245;28;19912;-80
2021/11/10 04:00:58;;;;;;;;;;;;;;;;;;5052635;28;20020;-80
2021/11/10 04:03:25;;;;;;;;;;;;;;;;;;5053080;28;20003;-79
2021/11/10 04:05:50;;;;;;;;;;;;;;;;;;5052385;28;19921;-79
2021/11/10 04:08:16;;;;;;;;;;;;;;;;;;5052478;28;19939;-80
2021/11/10 04:10:42;;;;;;;;;;;;;;;;;;5036171;28;20475;-80
2021/11/10 04:13:07;;;;;;;;;;;;;;;;;;5051770;28;19924;-79
2021/11/10 04:15:32;;;;;;;;;;;;;;;;;;5053171;28;20405;-80
2021/11/10 04:17:58;;;;;;;;;;;;;;;;;;5052791;28;20007;-79
2021/11/10 04:20:23;;;;;;;;;;;;;;;;;;5052047;28;19917;-80
2021/11/10 04:22:48;;;;;;;;;;;;;;;;;;5035820;28;19916;-79
2021/11/10 04:25:14;;;;;;;;;;;;;;;;;;5025104;28;20375;-79
2021/11/10 04:27:39;;;;;;;;;;;;;;;;;;5032087;28;19917;-80
2021/11/10 04:30:05;;;;;;;;;;;;;;;;;;5026223;28;19917;-80
2021/11/10 04:32:30;;;;;;;;;;;;;;;;;;5035500;28;19971;-79
2021/11/10 04:34:55;;;;;;;;;;;;;;;;;;5051940;28;20554;-79
2021/11/10 04:37:21;;;;;;;;;;;;;;;;;;5043590;28;20327;-79
2021/11/10 04:39:46;;;;;;;;;;;;;;;;;;5024435;28;19927;-80
2021/11/10 04:42:12;;;;;;;;;;;;;;;;;;5052192;28;20401;-79
2021/11/10 04:44:37;;;;;;;;;;;;;;;;;;5019133;28;20366;-79
2021/11/10 04:47:04;;;;;;;;;;;;;;;;;;5034976;28;19913;-80
2021/11/10 04:49:30;;;;;;;;;;;;;;;;;;5020970;28;19924;-79
2021/11/10 04:52:02;;;;;;;;;;;;;;;;;;5051404;28;19917;-80
2021/11/10 04:54:30;;;;;;;;;;;;;;;;;;5052131;28;19921;-79
2021/11/10 04:56:59;;;;;;;;;;;;;;;;;;5051548;28;19917;-79
2021/11/10 04:59:24;;;;;;;;;;;;;;;;;;5018623;28;19917;-79
2021/11/10 05:04:30;;;;;;;;;;;;;;;;;;5051214;28;19928;-79
2021/11/10 05:06:56;;;;;;;;;;;;;;;;;;5029973;28;19917;-79
2021/11/10 05:09:21;;;;;;;;;;;;;;;;;;5014914;28;19917;-80
2021/11/10 05:11:46;;;;;;;;;;;;;;;;;;5018523;28;19963;-79
2021/11/10 05:14:11;;;;;;;;;;;;;;;;;;5031213;28;19967;-79
2021/11/10 05:16:37;;;;;;;;;;;;;;;;;;5031958;28;20466;-80
2021/11/10 05:19:02;;;;;;;;;;;;;;;;;;5033566;28;20371;-79
2021/11/10 05:21:27;;;;;;;;;;;;;;;;;;5051345;28;19913;-80
2021/11/10 05:23:53;;;;;;;;;;;;;;;;;;5051218;28;19917;-80
2021/11/10 05:26:18;;;;;;;;;;;;;;;;;;5034928;28;19965;-80
2021/11/10 05:28:43;;;;;;;;;;;;;;;;;;5050941;28;19919;-79
2021/11/10 05:31:09;;;;;;;;;;;;;;;;;;5032025;28;19964;-79
2021/11/10 05:33:34;;;;;;;;;;;;;;;;;;5031317;28;19913;-79
2021/11/10 05:35:59;;;;;;;;;;;;;;;;;;5028663;28;19925;-79
2021/11/10 05:38:25;;;;;;;;;;;;;;;;;;5031915;28;19921;-80
2021/11/10 05:40:50;;;;;;;;;;;;;;;;;;5049967;28;19932;-80
2021/11/10 05:43:15;;;;;;;;;;;;;;;;;;5033985;28;19928;-80
2021/11/10 05:45:41;;;;;;;;;;;;;;;;;;5045060;28;19917;-80
2021/11/10 05:48:06;;;;;;;;;;;;;;;;;;5048553;28;19925;-80
2021/11/10 05:50:32;;;;;;;;;;;;;;;;;;5030715;28;20425;-79
2021/11/10 05:52:57;;;;;;;;;;;;;;;;;;5014645;28;20385;-79
2021/11/10 05:55:25;;;;;;;;;;;;;;;;;;5031352;28;19913;-79
2021/11/10 05:57:51;;;;;;;;;;;;;;;;;;5025214;28;19940;-79
2021/11/10 06:00:16;;;;;;;;;;;;;;;;;;5050798;28;19917;-79
2021/11/10 06:02:42;;;;;;;;;;;;;;;;;;5050660;28;19940;-79
2021/11/10 06:05:08;;;;;;;;;;;;;;;;;;5050578;28;19966;-80
2021/11/10 06:07:34;;;;;;;;;;;;;;;;;;5050543;28;19916;-80
2021/11/10 06:09:59;;;;;;;;;;;;;;;;;;5050362;28;20125;-80
2021/11/10 06:12:25;;;;;;;;;;;;;;;;;;5050484;28;20461;-80
2021/11/10 06:14:50;;;;;;;;;;;;;;;;;;5034474;28;19928;-79
2021/11/10 06:17:15;;;;;;;;;;;;;;;;;;5017444;28;19952;-80
2021/11/10 06:19:41;;;;;;;;;;;;;;;;;;5030912;28;20059;-80
2021/11/10 06:22:06;;;;;;;;;;;;;;;;;;5050466;28;19963;-81
2021/11/10 06:24:31;;;;;;;;;;;;;;;;;;5045928;28;20018;-81
2021/11/10 06:26:57;;;;;;;;;;;;;;;;;;5040889;28;20285;-80
2021/11/10 06:29:23;;;;;;;;;;;;;;;;;;5048878;28;19919;-81
2021/11/10 06:31:49;;;;;;;;;;;;;;;;;;5049468;28;20263;-81
2021/11/10 06:34:14;;;;;;;;;;;;;;;;;;5049285;28;19939;-81
2021/11/10 06:36:39;;;;;;;;;;;;;;;;;;5046871;28;20326;-80
2021/11/10 06:39:05;;;;;;;;;;;;;;;;;;5047764;28;19948;-80
2021/11/10 06:41:30;;;;;;;;;;;;;;;;;;5013150;28;19917;-81
2021/11/10 06:43:55;;;;;;;;;;;;;;;;;;5033112;28;19928;-80
2021/11/10 06:46:21;;;;;;;;;;;;;;;;;;5050218;28;19982;-80
2021/11/10 06:48:47;;;;;;;;;;;;;;;;;;5033688;28;19999;-83
2021/11/10 06:51:14;;;;;;;;;;;;;;;;;;5049523;28;20000;-82
2021/11/10 06:53:40;;;;;;;;;;;;;;;;;;5017484;28;19917;-82
2021/11/10 06:56:05;;;;;;;;;;;;;;;;;;5037776;28;19913;-82
2021/11/10 06:58:31;;;;;;;;;;;;;;;;;;5019554;28;19923;-82
2021/11/10 07:00:56;;;;;;;;;;;;;;;;;;5041336;28;19957;-81
2021/11/10 07:03:21;;;;;;;;;;;;;;;;;;5022617;28;20011;-82
2021/11/10 07:05:47;;;;;;;;;;;;;;;;;;5031960;28;20063;-82
2021/11/10 07:08:13;;;;;;;;;;;;;;;;;;5053491;28;19928;-82
2021/11/10 07:10:38;;;;;;;;;;;;;;;;;;5053940;28;19917;-82
2021/11/10 07:13:03;;;;;;;;;;;;;;;;;;5052896;28;19924;-83
2021/11/10 07:15:28;;;;;;;;;;;;;;;;;;5037347;28;20022;-83
2021/11/10 07:17:54;;;;;;;;;;;;;;;;;;5032990;28;20003;-83
2021/11/10 07:20:19;;;;;;;;;;;;;;;;;;5036959;28;20083;-83
2021/11/10 07:22:45;;;;;;;;;;;;;;;;;;5029932;28;19917;-81
2021/11/10 07:25:10;;;;;;;;;;;;;;;;;;5036995;28;19956;-82
2021/11/10 07:27:35;;;;;;;;;;;;;;;;;;5053567;28;20327;-82
2021/11/10 07:30:02;;;;;;;;;;;;;;;;;;5020350;28;19928;-82
2021/11/10 07:32:27;;;;;;;;;;;;;;;;;;5052961;28;19920;-82
2021/11/10 07:34:52;;;;;;;;;;;;;;;;;;5031640;28;19940;-83
2021/11/10 07:37:18;;;;;;;;;;;;;;;;;;5039333;28;20007;-81
2021/11/10 07:39:44;;;;;;;;;;;;;;;;;;5036942;28;19913;-83
2021/11/10 07:42:10;;;;;;;;;;;;;;;;;;5053358;28;19916;-81
2021/11/10 07:44:37;;;;;;;;;;;;;;;;;;5052501;28;20004;-81
2021/11/10 07:47:23;;;;;;;;;;;;;;;;;;5033415;28;19921;-82
2021/11/10 07:49:48;;;;;;;;;;;;;;;;;;5032256;28;19924;-81
2021/11/10 07:52:13;;;;;;;;;;;;;;;;;;5022658;28;19917;-83
2021/11/10 07:54:39;;;;;;;;;;;;;;;;;;5017134;28;19920;-81
2021/11/10 07:57:04;;;;;;;;;;;;;;;;;;5017841;28;19920;-81
2021/11/10 07:59:30;;;;;;;;;;;;;;;;;;5032814;28;19917;-82
2021/11/10 08:01:55;;;;;;;;;;;;;;;;;;5033618;28;19913;-82
2021/11/10 08:04:20;;;;;;;;;;;;;;;;;;5016719;28;19996;-83
2021/11/10 08:06:47;;;;;;;;;;;;;;;;;;5015720;28;19971;-82
2021/11/10 08:09:12;;;;;;;;;;;;;;;;;;5016728;28;19918;-83
2021/11/10 08:11:38;;;;;;;;;;;;;;;;;;5018255;28;19917;-81
2021/11/10 08:14:04;;;;;;;;;;;;;;;;;;5019323;28;19916;-82
2021/11/10 08:16:29;;;;;;;;;;;;;;;;;;5019938;28;19920;-81
2021/11/10 08:18:54;;;;;;;;;;;;;;;;;;5019750;28;20282;-81
2021/11/10 08:21:20;;;;;;;;;;;;;;;;;;5019550;28;19999;-82
2021/11/10 08:23:46;;;;;;;;;;;;;;;;;;5019681;28;19916;-81
2021/11/10 08:26:11;;;;;;;;;;;;;;;;;;5016099;28;19921;-81
2021/11/10 08:28:36;;;;;;;;;;;;;;;;;;5014738;28;20338;-82
2021/11/10 08:31:01;;;;;;;;;;;;;;;;;;5031888;28;19917;-82
2021/11/10 08:33:27;;;;;;;;;;;;;;;;;;5015422;28;19919;-80
2021/11/10 08:35:53;;;;;;;;;;;;;;;;;;5016049;28;19913;-82
2021/11/10 08:38:18;;;;;;;;;;;;;;;;;;5016036;28;19963;-81
2021/11/10 08:40:43;;;;;;;;;;;;;;;;;;5032296;28;19920;-83
2021/11/10 08:43:11;;;;;;;;;;;;;;;;;;5031768;28;19919;-83
2021/11/10 08:45:38;;;;;;;;;;;;;;;;;;5021610;28;19956;-82
2021/11/10 08:48:05;;;;;;;;;;;;;;;;;;5036171;28;19912;-82
2021/11/10 08:50:30;;;;;;;;;;;;;;;;;;5035792;28;19963;-84
2021/11/10 08:52:56;;;;;;;;;;;;;;;;;;5019084;28;19956;-83
2021/11/10 08:55:21;;;;;;;;;;;;;;;;;;5035516;28;19913;-83
2021/11/10 08:57:47;;;;;;;;;;;;;;;;;;5017814;28;19965;-82
2021/11/10 09:00:13;;;;;;;;;;;;;;;;;;5035695;28;19919;-83
2021/11/10 09:02:38;;;;;;;;;;;;;;;;;;5018657;28;19912;-83
2021/11/10 09:05:04;;;;;;;;;;;;;;;;;;5051709;28;19920;-83
2021/11/10 09:07:30;;;;;;;;;;;;;;;;;;5019023;28;19917;-84
2021/11/10 09:09:55;;;;;;;;;;;;;;;;;;5018666;28;19913;-84
2021/11/10 09:12:20;;;;;;;;;;;;;;;;;;5018340;28;20441;-85
2021/11/10 09:14:47;;;;;;;;;;;;;;;;;;5018430;28;19917;-84
2021/11/10 09:17:12;;;;;;;;;;;;;;;;;;5018821;28;20287;-82
2021/11/10 09:19:38;;;;;;;;;;;;;;;;;;5050904;28;19921;-82
2021/11/10 09:22:04;;;;;;;;;;;;;;;;;;5035088;28;19913;-83
2021/11/10 09:24:29;;;;;;;;;;;;;;;;;;5050939;28;19991;-82
2021/11/10 09:26:54;;;;;;;;;;;;;;;;;;5034333;28;19913;-81
2021/11/10 09:29:20;;;;;;;;;;;;;;;;;;5028318;28;19924;-81
2021/11/10 09:31:46;;;;;;;;;;;;;;;;;;5044612;28;19914;-81
2021/11/10 09:34:13;;;;;;;;;;;;;;;;;;5051417;28;19968;-83
2021/11/10 09:36:47;;;;;;;;;;;;;;;;;;5051415;28;19912;-81
2021/11/10 09:39:20;;;;;;;;;;;;;;;;;;5051463;28;19920;-82
2021/11/10 09:41:46;;;;;;;;;;;;;;;;;;5049186;28;19966;-82
2021/11/10 09:44:11;;;;;;;;;;;;;;;;;;5050692;28;19921;-83
2021/11/10 09:46:37;;;;;;;;;;;;;;;;;;5014547;28;19932;-83
2021/11/10 09:49:02;;;;;;;;;;;;;;;;;;5031254;28;20449;-83
2021/11/10 09:51:28;;;;;;;;;;;;;;;;;;5017316;28;19917;-82
2021/11/10 09:53:53;;;;;;;;;;;;;;;;;;5018118;28;20398;-81
2021/11/10 09:56:23;;;;;;;;;;;;;;;;;;5051193;28;19960;-84
2021/11/10 09:58:51;;;;;;;;;;;;;;;;;;5050352;28;19924;-86
2021/11/10 10:01:16;;;;;;;;;;;;;;;;;;5031545;28;19916;-85
2021/11/10 10:03:44;;;;;;;;;;;;;;;;;;5014825;28;20020;-85
2021/11/10 10:06:10;;;;;;;;;;;;;;;;;;5018468;28;19940;-85
2021/11/10 10:08:35;;;;;;;;;;;;;;;;;;5018192;28;19912;-86
2021/11/10 10:11:00;;;;;;;;;;;;;;;;;;5050789;28;20393;-85
2021/11/10 10:13:26;;;;;;;;;;;;;;;;;;5050761;28;19921;-87
2021/11/10 10:15:52;;;;;;;;;;;;;;;;;;5017654;28;19924;-84
2021/11/10 10:18:25;;;;;;;;;;;;;;;;;;5051697;28;20370;-87
2021/11/10 10:21:00;;;;;;;;;;;;;;;;;;5051166;28;20409;-86
2021/11/10 10:23:27;;;;;;;;;;;;;;;;;;5051416;28;20004;-87
2021/11/10 10:25:58;;;;;;;;;;;;;;;;;;5051135;28;19923;-87
2021/11/10 10:28:26;;;;;;;;;;;;;;;;;;5038367;28;20073;-86
2021/11/10 10:31:02;;;;;;;;;;;;;;;;;;5035026;28;20028;-87
2021/11/10 10:33:29;;;;;;;;;;;;;;;;;;5018554;28;19921;-85
2021/11/10 10:35:58;;;;;;;;;;;;;;;;;;5034293;28;19917;-87
2021/11/10 10:38:35;;;;;;;;;;;;;;;;;;5038723;28;19913;-86
2021/11/10 10:41:01;;;;;;;;;;;;;;;;;;5038853;28;20080;-90
2021/11/10 10:43:27;;;;;;;;;;;;;;;;;;5038984;28;19932;-85
2021/11/10 10:45:53;;;;;;;;;;;;;;;;;;5038434;28;19913;-84
2021/11/10 10:48:25;;;;;;;;;;;;;;;;;;5054680;28;19912;-85
2021/11/10 10:50:54;;;;;;;;;;;;;;;;;;5054351;28;20298;-87
2021/11/10 10:53:20;;;;;;;;;;;;;;;;;;5053975;28;19917;-83
2021/11/10 10:55:48;;;;;;;;;;;;;;;;;;5054925;28;19913;-88
2021/11/10 10:58:30;;;;;;;;;;;;;;;;;;5053606;28;19956;-78
2021/11/10 11:00:55;;;;;;;;;;;;;;;;;;5035863;28;19917;-78
2021/11/10 11:03:20;;;;;;;;;;;;;;;;;;5053413;28;20331;-77
2021/11/10 11:05:45;;;;;;;;;;;;;;;;;;5053644;28;19912;-86
2021/11/10 11:08:30;;;;;;;;;;;;;;;;;;5021222;28;19920;-84
2021/11/10 11:10:55;;;;;;;;;;;;;;;;;;5021089;28;19982;-84
2021/11/10 11:13:25;;;;;;;;;;;;;;;;;;5020279;28;20379;-85
2021/11/10 11:15:58;;;;;;;;;;;;;;;;;;5038021;28;20460;-86
2021/11/10 11:18:24;;;;;;;;;;;;;;;;;;5055129;28;19913;-86
2021/11/10 11:20:51;;;;;;;;;;;;;;;;;;5054302;28;19920;-85
2021/11/10 11:23:17;;;;;;;;;;;;;;;;;;5054094;28;19913;-85
2021/11/10 11:25:43;;;;;;;;;;;;;;;;;;5053377;28;19924;-80
2021/11/10 11:28:16;;;;;;;;;;;;;;;;;;5020361;28;19912;-80
2021/11/10 11:30:44;;;;;;;;;;;;;;;;;;5047830;28;20374;-82
2021/11/10 11:33:10;;;;;;;;;;;;;;;;;;5053735;28;19942;-77
2021/11/10 11:35:37;;;;;;;;;;;;;;;;;;5053331;28;19920;-78
2021/11/10 11:38:06;;;;;;;;;;;;;;;;;;5052810;28;19960;-81
2021/11/10 11:40:34;;;;;;;;;;;;;;;;;;5031899;28;20421;-84
2021/11/10 11:43:00;;;;;;;;;;;;;;;;;;5016519;28;19944;-82
2021/11/10 11:45:27;;;;;;;;;;;;;;;;;;5032770;28;19921;-84
2021/11/10 11:47:53;;;;;;;;;;;;;;;;;;5017597;28;20028;-85
2021/11/10 11:50:18;;;;;;;;;;;;;;;;;;5052885;28;20386;-82
2021/11/10 11:52:45;;;;;;;;;;;;;;;;;;5033229;28;19923;-83
2021/11/10 11:55:25;;;;;;;;;;;;;;;;;;5031088;28;19917;-83
2021/11/10 11:58:05;;;;;;;;;;;;;;;;;;5045756;28;20114;-85
2021/11/10 12:00:37;;;;;;;;;;;;;;;;;;5040223;28;20305;-85
2021/11/10 12:03:14;;;;;;;;;;;;;;;;;;5036395;28;19924;-84
2021/11/10 12:05:41;;;;;;;;;;;;;;;;;;5019751;28;19912;-85
2021/11/10 12:08:07;;;;;;;;;;;;;;;;;;5019387;28;20379;-83
2021/11/10 12:10:33;;;;;;;;;;;;;;;;;;5036377;28;19917;-84
2021/11/10 12:13:06;;;;;;;;;;;;;;;;;;5019595;28;19916;-85
2021/11/10 12:15:52;;;;;;;;;;;;;;;;;;5053346;28;19917;-86
2021/11/10 12:18:20;;;;;;;;;;;;;;;;;;5041970;28;19971;-85
2021/11/10 12:20:46;;;;;;;;;;;;;;;;;;5018792;28;19966;-83
2021/11/10 12:23:11;;;;;;;;;;;;;;;;;;5052331;28;19917;-84
2021/11/10 12:25:37;;;;;;;;;;;;;;;;;;5051938;28;20008;-80
2021/11/10 12:28:02;;;;;;;;;;;;;;;;;;5035163;28;20007;-81
2021/11/10 12:30:28;;;;;;;;;;;;;;;;;;5035612;28;19946;-82
2021/11/10 12:32:54;;;;;;;;;;;;;;;;;;5031686;28;20456;-81
2021/11/10 12:35:31;;;;;;;;;;;;;;;;;;5052161;28;19917;-81
2021/11/10 12:37:56;;;;;;;;;;;;;;;;;;5052178;28;20370;-80
2021/11/10 12:40:22;;;;;;;;;;;;;;;;;;5052536;28;19917;-79
2021/11/10 12:42:48;;;;;;;;;;;;;;;;;;5035124;28;20290;-79
2021/11/10 12:45:15;;;;;;;;;;;;;;;;;;5052134;28;20010;-79
2021/11/10 12:47:42;;;;;;;;;;;;;;;;;;5015344;28;19928;-79
2021/11/10 12:50:17;;;;;;;;;;;;;;;;;;5031127;28;19917;-79
2021/11/10 12:52:45;;;;;;;;;;;;;;;;;;5040033;28;19921;-79
2021/11/10 12:55:11;;;;;;;;;;;;;;;;;;5052099;28;20011;-80
2021/11/10 12:57:36;;;;;;;;;;;;;;;;;;5030910;28;19999;-80
2021/11/10 13:00:03;;;;;;;;;;;;;;;;;;5026539;28;19928;-79
2021/11/10 13:02:28;;;;;;;;;;;;;;;;;;5014670;28;19929;-81
2021/11/10 13:04:54;;;;;;;;;;;;;;;;;;5034668;28;19917;-80
2021/11/10 13:07:27;;;;;;;;;;;;;;;;;;5018826;28;19912;-80
2021/11/10 13:10:02;;;;;;;;;;;;;;;;;;5035335;28;20390;-81
2021/11/10 13:12:29;;;;;;;;;;;;;;;;;;5047867;28;19925;-81
2021/11/10 13:14:54;;;;;;;;;;;;;;;;;;5031475;28;19917;-81
2021/11/10 13:17:30;;;;;;;;;;;;;;;;;;5048454;28;19920;-81
2021/11/10 13:19:57;;;;;;;;;;;;;;;;;;5028643;28;19917;-82
2021/11/10 13:22:39;;;;;;;;;;;;;;;;;;5018410;28;19917;-82
2021/11/10 13:25:12;;;;;;;;;;;;;;;;;;5020250;28;19924;-82
2021/11/10 13:27:39;;;;;;;;;;;;;;;;;;5017377;28;20011;-82
2021/11/10 13:30:12;;;;;;;;;;;;;;;;;;5034999;28;19913;-81
2021/11/10 13:32:40;;;;;;;;;;;;;;;;;;5034249;28;19971;-81
2021/11/10 13:35:07;;;;;;;;;;;;;;;;;;5034807;28;20383;-81
2021/11/10 13:37:50;;;;;;;;;;;;;;;;;;5017710;28;19921;-80
2021/11/10 13:40:16;;;;;;;;;;;;;;;;;;5034412;28;19917;-85
2021/11/10 13:42:42;;;;;;;;;;;;;;;;;;5034709;28;19916;-87
2021/11/10 13:45:12;;;;;;;;;;;;;;;;;;5018594;28;19931;-90
2021/11/10 13:47:40;;;;;;;;;;;;;;;;;;5019469;28;19966;-89
2021/11/10 13:50:06;;;;;;;;;;;;;;;;;;5034837;28;20390;-84
2021/11/10 13:52:31;;;;;;;;;;;;;;;;;;5051327;28;19951;-84
2021/11/10 13:54:57;;;;;;;;;;;;;;;;;;5018474;28;19917;-84
2021/11/10 13:57:25;;;;;;;;;;;;;;;;;;5018756;28;19916;-85
2021/11/10 13:59:52;;;;;;;;;;;;;;;;;;5015256;28;20012;-85
2021/11/10 14:02:29;;;;;;;;;;;;;;;;;;5014989;28;20044;-84
2021/11/10 14:04:58;;;;;;;;;;;;;;;;;;5017700;28;19935;-84
2021/11/10 14:07:24;;;;;;;;;;;;;;;;;;5050870;28;19960;-86
2021/11/10 14:10:05;;;;;;;;;;;;;;;;;;5051674;28;19947;-88
2021/11/10 14:12:34;;;;;;;;;;;;;;;;;;5050752;28;19916;-86
2021/11/10 14:15:03;;;;;;;;;;;;;;;;;;5035391;28;19927;-88
2021/11/10 14:17:29;;;;;;;;;;;;;;;;;;5051907;28;19962;-88
2021/11/10 14:19:58;;;;;;;;;;;;;;;;;;5051935;28;19913;-87
2021/11/10 14:22:25;;;;;;;;;;;;;;;;;;5031589;28;19913;-88
2021/11/10 14:24:51;;;;;;;;;;;;;;;;;;5015782;28;19975;-86
2021/11/10 14:27:18;;;;;;;;;;;;;;;;;;5018363;28;19913;-86
2021/11/10 14:29:46;;;;;;;;;;;;;;;;;;5051432;28;19912;-86
2021/11/10 14:32:12;;;;;;;;;;;;;;;;;;5051534;28;19924;-86
2021/11/10 14:34:41;;;;;;;;;;;;;;;;;;5051579;28;19967;-85
2021/11/10 14:37:20;;;;;;;;;;;;;;;;;;5051481;28;19979;-86
2021/11/10 14:39:45;;;;;;;;;;;;;;;;;;5017598;28;19913;-87
2021/11/10 14:42:26;;;;;;;;;;;;;;;;;;5035159;28;19920;-87
2021/11/10 14:44:52;;;;;;;;;;;;;;;;;;5035120;28;19921;-88
2021/11/10 14:47:20;;;;;;;;;;;;;;;;;;5052017;28;19967;-87
2021/11/10 14:49:46;;;;;;;;;;;;;;;;;;5034962;28;19924;-87
2021/11/10 14:52:14;;;;;;;;;;;;;;;;;;5018757;28;19917;-87
2021/11/10 14:54:43;;;;;;;;;;;;;;;;;;5018765;28;19959;-88
2021/11/10 14:57:20;;;;;;;;;;;;;;;;;;5018975;28;19924;-88
2021/11/10 14:59:48;;;;;;;;;;;;;;;;;;5018600;28;20450;-88
2021/11/10 15:02:25;;;;;;;;;;;;;;;;;;5018946;28;19913;-87
2021/11/10 15:05:09;;;;;;;;;;;;;;;;;;5017816;28;19917;-83
2021/11/10 15:07:38;;;;;;;;;;;;;;;;;;5016559;28;19996;-82
2021/11/10 15:10:11;;;;;;;;;;;;;;;;;;5033423;28;19917;-82
2021/11/10 15:12:36;;;;;;;;;;;;;;;;;;5049529;28;20398;-82
2021/11/10 15:15:04;;;;;;;;;;;;;;;;;;5017185;28;19925;-83
2021/11/10 15:17:32;;;;;;;;;;;;;;;;;;5037148;28;19920;-82
2021/11/10 15:19:58;;;;;;;;;;;;;;;;;;5053572;28;19917;-82
2021/11/10 15:22:34;;;;;;;;;;;;;;;;;;5034550;28;19923;-81
2021/11/10 15:25:09;;;;;;;;;;;;;;;;;;5018297;28;20016;-81
2021/11/10 15:27:36;;;;;;;;;;;;;;;;;;5019774;28;19919;-81
2021/11/10 15:30:01;;;;;;;;;;;;;;;;;;5053053;28;19921;-86
2021/11/10 15:32:26;;;;;;;;;;;;;;;;;;5053612;28;19970;-81
2021/11/10 15:34:53;;;;;;;;;;;;;;;;;;5053469;28;20399;-83
2021/11/10 15:37:18;;;;;;;;;;;;;;;;;;5020715;28;20004;-83
2021/11/10 15:39:44;;;;;;;;;;;;;;;;;;5020186;28;20003;-83
2021/11/10 15:42:09;;;;;;;;;;;;;;;;;;5053241;28;19924;-82
2021/11/10 15:44:35;;;;;;;;;;;;;;;;;;5052197;28;20390;-81
2021/11/10 15:47:00;;;;;;;;;;;;;;;;;;5036804;28;19916;-81
2021/11/10 15:49:26;;;;;;;;;;;;;;;;;;5029257;28;19928;-81
2021/11/10 15:51:51;;;;;;;;;;;;;;;;;;5015366;28;19957;-80
2021/11/10 15:54:16;;;;;;;;;;;;;;;;;;5048566;28;19923;-81
2021/11/10 15:56:42;;;;;;;;;;;;;;;;;;5017044;28;20391;-81
2021/11/10 15:59:07;;;;;;;;;;;;;;;;;;5019605;28;20007;-80
2021/11/10 16:01:33;;;;;;;;;;;;;;;;;;5036042;28;19913;-81
2021/11/10 16:04:06;;;;;;;;;;;;;;;;;;5052670;28;19928;-81
2021/11/10 16:06:31;;;;;;;;;;;;;;;;;;5037179;28;19924;-80
2021/11/10 16:08:57;;;;;;;;;;;;;;;;;;5036478;28;19916;-80
2021/11/10 16:11:23;;;;;;;;;;;;;;;;;;5019340;28;19921;-81
2021/11/10 16:13:48;;;;;;;;;;;;;;;;;;5036161;28;20015;-81
2021/11/10 16:16:13;;;;;;;;;;;;;;;;;;5019875;28;19913;-81
2021/11/10 16:18:39;;;;;;;;;;;;;;;;;;5018809;28;20290;-81
2021/11/10 16:21:04;;;;;;;;;;;;;;;;;;5019321;28;19912;-81
2021/11/10 16:23:30;;;;;;;;;;;;;;;;;;5019332;28;20346;-81
2021/11/10 16:25:59;;;;;;;;;;;;;;;;;;5019683;28;19913;-80
2021/11/10 16:28:28;;;;;;;;;;;;;;;;;;5018601;28;19912;-81
2021/11/10 16:30:57;;;;;;;;;;;;;;;;;;5019823;28;19966;-81
2021/11/10 16:33:23;;;;;;;;;;;;;;;;;;5020086;28;19921;-81
2021/11/10 16:35:52;;;;;;;;;;;;;;;;;;5036457;28;20314;-81
2021/11/10 16:38:19;;;;;;;;;;;;;;;;;;5035859;28;19924;-81
2021/11/10 16:40:45;;;;;;;;;;;;;;;;;;5018716;28;19913;-81
2021/11/10 16:43:11;;;;;;;;;;;;;;;;;;5018765;28;19921;-81
2021/11/10 16:45:37;;;;;;;;;;;;;;;;;;5052110;28;19917;-81